Time;durP1;ratioP1;P1;durP2;ratioP2;P2;SDS_P1;SDS_P2;PMS_P1;PMS_P2;Temp;Humidity;BMP_temperature;BMP_pressure;BME280_temperature;BME280_humidity;BME280_pressure;Samples;Min_cycle;Max_cycle;Signal;HPM_P1;HPM_P2
2021/10/05 00:00:32;;;;;;;7.33;6.43;;;13.10;99.90;;;;;;5070208;28;20190;-48
2021/10/05 00:02:58;;;;;;;7.00;6.30;;;13.10;99.90;;;;;;5050447;28;20202;-51
2021/10/05 00:05:23;;;;;;;7.27;6.57;;;13.10;99.90;;;;;;5064853;28;20458;-48
2021/10/05 00:07:50;;;;;;;6.77;6.10;;;13.20;99.90;;;;;;5060581;28;20227;-54
2021/10/05 00:10:16;;;;;;;7.60;6.80;;;13.20;99.90;;;;;;5071280;28;20619;-48
2021/10/05 00:12:42;;;;;;;6.97;6.27;;;13.20;99.90;;;;;;5069720;28;20443;-50
2021/10/05 00:15:10;;;;;;;10.17;9.03;;;13.30;99.90;;;;;;5066313;28;21015;-49
2021/10/05 00:17:36;;;;;;;8.97;6.30;;;13.30;99.90;;;;;;5066471;28;20193;-52
2021/10/05 00:20:04;;;;;;;8.43;6.90;;;13.20;99.90;;;;;;5070253;28;20422;-49
2021/10/05 00:22:30;;;;;;;7.27;6.40;;;13.20;99.90;;;;;;5059547;28;20209;-51
2021/10/05 00:24:56;;;;;;;8.07;6.63;;;13.20;99.90;;;;;;5069898;28;20894;-49
2021/10/05 00:27:21;;;;;;;7.43;6.60;;;13.30;99.90;;;;;;5055083;28;20280;-51
2021/10/05 00:29:47;;;;;;;8.30;6.63;;;13.20;99.90;;;;;;5069311;28;20178;-49
2021/10/05 00:32:12;;;;;;;7.07;6.40;;;13.20;99.90;;;;;;5059196;28;20192;-49
2021/10/05 00:34:38;;;;;;;8.83;7.30;;;13.20;99.90;;;;;;5061893;28;20193;-51
2021/10/05 00:37:03;;;;;;;7.53;6.30;;;13.20;99.90;;;;;;5066430;28;20178;-47
2021/10/05 00:39:29;;;;;;;12.53;6.43;;;13.30;99.90;;;;;;5067674;28;20238;-51
2021/10/05 00:41:55;;;;;;;7.77;6.17;;;13.30;99.90;;;;;;5068289;28;20243;-51
2021/10/05 00:44:38;;;;;;;6.63;5.87;;;13.30;99.90;;;;;;5068449;28;20248;-47
2021/10/05 00:47:09;;;;;;;8.77;6.67;;;13.30;99.90;;;;;;5068878;28;20644;-47
2021/10/05 00:49:35;;;;;;;7.33;6.63;;;13.40;99.90;;;;;;5068506;28;20450;-54
2021/10/05 00:52:02;;;;;;;6.50;5.90;;;13.40;99.90;;;;;;5078748;28;20450;-47
2021/10/05 00:54:32;;;;;;;7.70;7.00;;;13.40;99.90;;;;;;5069637;28;20463;-49
2021/10/05 00:56:58;;;;;;;7.23;6.53;;;13.40;99.90;;;;;;5068573;28;20468;-48
2021/10/05 00:59:23;;;;;;;7.20;6.50;;;13.50;99.90;;;;;;5068411;28;20443;-49
2021/10/05 01:01:49;;;;;;;7.73;6.97;;;13.40;99.90;;;;;;5079041;28;20268;-51
2021/10/05 01:04:15;;;;;;;7.17;6.47;;;13.40;99.90;;;;;;5071050;28;20639;-49
2021/10/05 01:06:47;;;;;;;7.60;6.80;;;13.40;99.90;;;;;;5070365;28;20231;-49
2021/10/05 01:09:13;;;;;;;6.63;6.03;;;13.40;99.90;;;;;;5069467;28;20196;-49
2021/10/05 01:11:39;;;;;;;7.70;6.70;;;13.40;99.90;;;;;;5067503;28;20428;-48
2021/10/05 01:14:04;;;;;;;7.97;7.10;;;13.40;99.90;;;;;;5069305;28;20445;-49
2021/10/05 01:16:30;;;;;;;8.03;7.20;;;13.40;99.90;;;;;;5070890;28;20519;-50
2021/10/05 01:18:55;;;;;;;13.37;12.03;;;13.40;99.90;;;;;;5070313;28;20266;-51
2021/10/05 01:21:21;;;;;;;18.33;12.17;;;13.50;99.90;;;;;;5063505;28;20188;-49
2021/10/05 01:23:47;;;;;;;12.90;11.60;;;13.50;99.90;;;;;;5063815;28;20221;-49
2021/10/05 01:26:12;;;;;;;9.07;8.10;;;13.60;99.90;;;;;;5059546;28;20506;-51
2021/10/05 01:28:38;;;;;;;8.37;7.57;;;13.70;99.90;;;;;;5065614;28;20260;-50
2021/10/05 01:31:04;;;;;;;8.20;7.40;;;13.60;99.90;;;;;;5064488;28;20186;-52
2021/10/05 01:33:29;;;;;;;6.90;6.00;;;13.50;99.90;;;;;;5064027;28;20649;-49
2021/10/05 01:35:55;;;;;;;7.67;6.97;;;13.40;99.90;;;;;;5069201;28;20255;-49
2021/10/05 01:38:21;;;;;;;8.57;7.17;;;13.30;99.90;;;;;;5059704;28;20210;-50
2021/10/05 01:40:47;;;;;;;7.10;6.40;;;13.30;99.90;;;;;;5056066;28;20465;-49
2021/10/05 01:43:13;;;;;;;7.37;6.67;;;13.30;99.90;;;;;;5069371;28;20510;-50
2021/10/05 01:45:39;;;;;;;7.23;6.50;;;13.30;99.90;;;;;;5061839;28;20487;-51
2021/10/05 01:48:07;;;;;;;8.43;6.43;;;13.30;99.90;;;;;;5060438;28;20664;-54
2021/10/05 01:50:33;;;;;;;9.07;6.23;;;13.40;99.90;;;;;;5055022;28;20438;-47
2021/10/05 01:52:59;;;;;;;7.77;7.07;;;13.40;99.90;;;;;;5055599;28;20421;-51
2021/10/05 01:55:25;;;;;;;7.57;6.87;;;13.40;99.90;;;;;;5075132;28;20932;-50
2021/10/05 01:57:51;;;;;;;9.17;6.60;;;13.40;99.90;;;;;;5069216;28;20181;-47
2021/10/05 02:00:18;;;;;;;6.87;6.27;;;13.40;99.90;;;;;;5059870;28;20285;-53
2021/10/05 02:02:43;;;;;;;7.67;6.87;;;13.40;99.90;;;;;;5066313;28;20511;-51
2021/10/05 02:05:09;;;;;;;7.87;6.60;;;13.40;99.90;;;;;;5068459;28;20455;-48
2021/10/05 02:07:36;;;;;;;8.10;7.30;;;13.30;99.90;;;;;;5069267;28;20730;-48
2021/10/05 02:10:03;;;;;;;8.30;7.00;;;13.30;99.90;;;;;;5053909;28;20266;-50
2021/10/05 02:12:28;;;;;;;7.37;6.67;;;13.30;99.90;;;;;;5073365;28;20476;-47
2021/10/05 02:14:54;;;;;;;7.47;6.60;;;13.30;99.90;;;;;;5071629;28;20470;-50
2021/10/05 02:17:20;;;;;;;9.87;8.30;;;13.20;99.90;;;;;;5072025;28;20189;-49
2021/10/05 02:19:46;;;;;;;8.83;7.90;;;13.10;99.90;;;;;;5061031;28;20232;-47
2021/10/05 02:22:11;;;;;;;9.00;7.40;;;13.10;99.90;;;;;;5066021;28;20210;-53
2021/10/05 02:24:42;;;;;;;7.87;7.00;;;13.10;99.90;;;;;;5083915;28;20438;-49
2021/10/05 02:27:16;;;;;;;9.30;6.97;;;13.20;99.90;;;;;;5092490;28;20216;-48
2021/10/05 02:29:42;;;;;;;8.17;6.53;;;13.20;99.90;;;;;;5062763;28;20477;-51
2021/10/05 02:32:09;;;;;;;7.83;6.70;;;13.10;99.90;;;;;;5087272;28;20929;-51
2021/10/05 02:34:36;;;;;;;6.87;6.23;;;13.00;99.90;;;;;;5069578;28;20236;-52
2021/10/05 02:37:03;;;;;;;9.17;6.80;;;13.00;99.90;;;;;;5086534;28;20443;-51
2021/10/05 02:39:29;;;;;;;9.90;8.17;;;13.00;99.90;;;;;;5070292;28;20489;-51
2021/10/05 02:41:54;;;;;;;8.47;6.80;;;12.90;99.90;;;;;;5075677;28;20916;-50
2021/10/05 02:44:20;;;;;;;8.33;7.20;;;12.90;99.90;;;;;;5064247;28;20717;-54
2021/10/05 02:46:46;;;;;;;7.30;6.37;;;12.90;99.90;;;;;;5070805;28;20193;-54
2021/10/05 02:49:12;;;;;;;8.70;6.63;;;12.90;99.90;;;;;;5066446;28;20178;-51
2021/10/05 02:51:38;;;;;;;7.50;6.80;;;12.90;99.90;;;;;;5059993;28;20963;-48
2021/10/05 02:54:04;;;;;;;7.00;6.30;;;12.90;99.90;;;;;;5074505;28;20793;-49
2021/10/05 02:56:29;;;;;;;7.87;7.10;;;12.90;99.90;;;;;;5068959;28;20213;-51
2021/10/05 02:58:55;;;;;;;9.60;8.10;;;12.90;99.90;;;;;;5061688;28;20193;-50
2021/10/05 03:01:20;;;;;;;8.07;7.30;;;12.90;99.90;;;;;;5069773;28;20178;-47
2021/10/05 03:03:46;;;;;;;7.87;7.07;;;13.00;99.90;;;;;;5070204;28;20219;-50
2021/10/05 03:06:12;;;;;;;8.67;7.43;;;13.00;99.90;;;;;;5071786;28;20272;-52
2021/10/05 03:08:40;;;;;;;8.07;7.27;;;13.00;99.90;;;;;;5070735;28;20272;-50
2021/10/05 03:11:06;;;;;;;8.67;7.67;;;12.90;99.90;;;;;;5067682;28;20175;-49
2021/10/05 03:13:35;;;;;;;7.70;6.93;;;12.90;99.90;;;;;;5068978;28;20953;-49
2021/10/05 03:16:10;;;;;;;9.90;8.40;;;12.90;99.90;;;;;;5074206;28;20391;-48
2021/10/05 03:18:35;;;;;;;10.67;8.40;;;12.90;99.90;;;;;;5069910;28;20435;-53
2021/10/05 03:21:01;;;;;;;9.00;7.20;;;12.90;99.90;;;;;;5061259;28;20435;-49
2021/10/05 03:23:27;;;;;;;8.43;7.03;;;12.80;99.90;;;;;;5076270;28;20212;-48
2021/10/05 03:25:52;;;;;;;10.10;7.67;;;12.80;99.90;;;;;;5063328;28;20201;-50
2021/10/05 03:28:18;;;;;;;8.23;7.43;;;12.80;99.90;;;;;;5067812;28;20193;-47
2021/10/05 03:30:44;;;;;;;8.17;7.37;;;12.70;99.90;;;;;;5068935;28;20190;-46
2021/10/05 03:33:10;;;;;;;7.20;6.50;;;12.60;99.90;;;;;;5068337;28;20440;-52
2021/10/05 03:35:35;;;;;;;7.60;6.90;;;12.70;99.90;;;;;;5072122;28;20429;-48
2021/10/05 03:38:01;;;;;;;9.03;7.53;;;12.70;99.90;;;;;;5068589;28;20219;-48
2021/10/05 03:40:27;;;;;;;10.20;7.53;;;12.80;99.90;;;;;;5078203;28;20860;-47
2021/10/05 03:42:53;;;;;;;8.40;7.33;;;12.80;99.90;;;;;;5068425;28;20309;-47
2021/10/05 03:45:19;;;;;;;10.73;7.33;;;12.70;99.90;;;;;;5071108;28;20530;-51
2021/10/05 03:47:44;;;;;;;8.60;7.80;;;12.70;99.90;;;;;;5076970;28;20178;-51
2021/10/05 03:50:10;;;;;;;9.17;7.33;;;12.60;99.90;;;;;;5069731;28;20213;-50
2021/10/05 03:52:37;;;;;;;9.00;8.10;;;12.60;99.90;;;;;;5059011;28;20194;-47
2021/10/05 03:55:04;;;;;;;9.63;7.20;;;12.60;99.90;;;;;;5080597;28;20913;-50
2021/10/05 03:57:30;;;;;;;8.23;7.33;;;12.60;99.90;;;;;;5070850;28;20954;-51
2021/10/05 03:59:56;;;;;;;7.63;6.60;;;12.60;99.90;;;;;;5070344;28;20488;-47
2021/10/05 04:02:21;;;;;;;10.87;7.93;;;12.50;99.90;;;;;;5075579;28;20235;-50
2021/10/05 04:04:47;;;;;;;8.57;7.73;;;12.50;99.90;;;;;;5083422;28;20271;-48
2021/10/05 04:07:12;;;;;;;7.97;7.17;;;12.50;99.90;;;;;;5076828;28;20188;-48
2021/10/05 04:09:38;;;;;;;8.03;7.20;;;12.50;99.90;;;;;;5081229;28;20201;-51
2021/10/05 04:12:04;;;;;;;8.53;6.60;;;12.50;99.90;;;;;;5065612;28;20178;-49
2021/10/05 04:14:29;;;;;;;7.83;7.03;;;12.60;99.90;;;;;;5077333;28;20177;-48
2021/10/05 04:16:55;;;;;;;7.80;7.00;;;12.60;99.90;;;;;;5065669;28;21104;-48
2021/10/05 04:19:20;;;;;;;8.90;7.43;;;12.60;99.90;;;;;;5063876;28;20189;-47
2021/10/05 04:21:46;;;;;;;8.00;7.00;;;12.60;99.90;;;;;;5062470;28;20182;-52
2021/10/05 04:24:11;;;;;;;7.80;6.47;;;12.60;99.90;;;;;;5065525;28;20213;-53
2021/10/05 04:26:37;;;;;;;6.70;6.10;;;12.70;99.90;;;;;;5076380;28;20676;-50
2021/10/05 04:29:03;;;;;;;8.50;7.10;;;12.70;99.90;;;;;;5070850;28;20184;-51
2021/10/05 04:31:29;;;;;;;7.60;6.73;;;12.70;99.90;;;;;;5065076;28;20170;-51
2021/10/05 04:33:54;;;;;;;7.17;6.50;;;12.70;99.90;;;;;;5088638;28;20191;-49
2021/10/05 04:36:20;;;;;;;7.40;6.60;;;12.80;99.90;;;;;;5074630;28;20545;-51
2021/10/05 04:38:45;;;;;;;6.90;6.30;;;12.80;99.90;;;;;;5082006;28;20224;-49
2021/10/05 04:41:11;;;;;;;12.53;8.57;;;12.80;99.90;;;;;;5080820;28;20205;-49
2021/10/05 04:43:36;;;;;;;11.30;6.90;;;12.80;99.90;;;;;;5071022;28;20233;-48
2021/10/05 04:46:02;;;;;;;11.03;7.93;;;12.80;99.90;;;;;;5080607;28;20188;-46
2021/10/05 04:48:28;;;;;;;9.97;7.83;;;12.80;99.90;;;;;;5075109;28;20174;-48
2021/10/05 04:50:53;;;;;;;9.10;7.43;;;12.80;99.90;;;;;;5080882;28;20214;-50
2021/10/05 04:53:19;;;;;;;9.33;7.90;;;12.80;99.90;;;;;;5079254;28;20185;-46
2021/10/05 04:55:44;;;;;;;8.63;7.73;;;12.80;99.90;;;;;;5091069;28;20200;-52
2021/10/05 04:58:11;;;;;;;9.50;7.70;;;12.80;99.90;;;;;;5072482;28;20524;-47
2021/10/05 05:00:37;;;;;;;12.17;8.83;;;12.70;99.90;;;;;;5066171;28;20556;-50
2021/10/05 05:03:03;;;;;;;8.67;7.77;;;12.70;99.90;;;;;;5072841;28;20539;-52
2021/10/05 05:05:29;;;;;;;8.77;7.50;;;12.70;99.90;;;;;;5070795;28;20424;-48
2021/10/05 05:07:59;;;;;;;8.50;7.60;;;12.70;99.90;;;;;;5071572;28;20432;-48
2021/10/05 05:10:24;;;;;;;12.30;7.23;;;12.70;99.90;;;;;;5068348;28;20420;-46
2021/10/05 05:12:50;;;;;;;10.47;7.80;;;12.70;99.90;;;;;;5072587;28;20431;-49
2021/10/05 05:15:16;;;;;;;9.43;7.73;;;12.60;99.90;;;;;;5068793;28;20291;-50
2021/10/05 05:17:41;;;;;;;9.13;7.50;;;12.60;99.90;;;;;;5069755;28;20288;-48
2021/10/05 05:20:07;;;;;;;9.80;8.80;;;12.60;99.90;;;;;;5067819;28;20581;-48
2021/10/05 05:22:33;;;;;;;9.60;7.50;;;12.60;99.90;;;;;;5068641;28;20210;-51
2021/10/05 05:24:59;;;;;;;9.33;7.97;;;12.60;99.90;;;;;;5089338;28;20419;-47
2021/10/05 05:27:24;;;;;;;9.87;8.17;;;12.60;99.90;;;;;;5080387;28;20182;-50
2021/10/05 05:29:51;;;;;;;10.10;8.90;;;12.60;99.90;;;;;;5068972;28;20278;-48
2021/10/05 05:32:18;;;;;;;9.47;8.57;;;12.60;99.90;;;;;;5063204;28;20181;-50
2021/10/05 05:34:43;;;;;;;12.53;11.30;;;12.60;99.90;;;;;;5067096;28;20447;-48
2021/10/05 05:37:09;;;;;;;12.93;11.63;;;12.60;99.90;;;;;;5063377;28;20420;-47
2021/10/05 05:39:39;;;;;;;11.63;10.00;;;12.60;99.90;;;;;;5067713;28;20178;-49
2021/10/05 05:42:06;;;;;;;11.37;10.13;;;12.60;99.90;;;;;;5068084;28;20427;-46
2021/10/05 05:44:32;;;;;;;11.07;8.97;;;12.70;99.90;;;;;;5072385;28;20463;-47
2021/10/05 05:46:57;;;;;;;10.20;7.80;;;12.80;99.90;;;;;;5072581;28;20762;-48
2021/10/05 05:49:23;;;;;;;9.10;8.20;;;12.80;99.90;;;;;;5079409;28;20660;-48
2021/10/05 05:51:48;;;;;;;9.13;8.20;;;12.80;99.90;;;;;;5067314;28;20189;-53
2021/10/05 05:54:14;;;;;;;9.57;8.57;;;12.80;99.90;;;;;;5073192;28;20184;-47
2021/10/05 05:56:39;;;;;;;9.27;8.37;;;12.80;99.90;;;;;;5072340;28;20185;-48
2021/10/05 05:59:05;;;;;;;9.93;8.90;;;12.80;99.90;;;;;;5070872;28;20200;-48
2021/10/05 06:01:31;;;;;;;9.97;8.97;;;12.90;99.90;;;;;;5067083;28;20662;-50
2021/10/05 06:03:57;;;;;;;8.93;8.00;;;12.90;99.90;;;;;;5068613;28;20198;-49
2021/10/05 06:06:23;;;;;;;11.40;9.17;;;12.90;99.90;;;;;;5069567;28;20947;-52
2021/10/05 06:08:50;;;;;;;9.80;8.63;;;12.90;99.90;;;;;;5064598;28;20421;-47
2021/10/05 06:11:18;;;;;;;10.90;8.00;;;12.90;99.90;;;;;;5090089;28;20208;-48
2021/10/05 06:13:47;;;;;;;11.97;8.60;;;12.90;99.90;;;;;;5077863;28;20442;-48
2021/10/05 06:16:13;;;;;;;11.70;9.10;;;13.00;99.90;;;;;;5081529;28;20492;-48
2021/10/05 06:18:38;;;;;;;9.97;8.97;;;13.00;99.90;;;;;;5070187;28;20439;-49
2021/10/05 06:21:04;;;;;;;10.00;8.90;;;13.10;99.90;;;;;;5066694;28;20652;-45
2021/10/05 06:23:29;;;;;;;9.80;8.80;;;13.10;99.90;;;;;;5069697;28;20202;-50
2021/10/05 06:25:56;;;;;;;9.63;8.63;;;13.10;99.90;;;;;;5071302;28;20276;-50
2021/10/05 06:28:22;;;;;;;9.80;8.80;;;13.20;99.90;;;;;;5074389;28;20182;-47
2021/10/05 06:30:47;;;;;;;10.93;9.60;;;13.20;99.90;;;;;;5078137;28;20829;-49
2021/10/05 06:33:13;;;;;;;12.70;9.30;;;13.30;99.90;;;;;;5080240;28;20181;-53
2021/10/05 06:35:39;;;;;;;12.43;9.23;;;13.30;99.90;;;;;;5077677;28;20269;-48
2021/10/05 06:38:04;;;;;;;11.30;9.80;;;13.30;99.90;;;;;;5071452;28;20560;-50
2021/10/05 06:40:33;;;;;;;9.90;8.90;;;13.40;99.90;;;;;;5070576;28;20204;-52
2021/10/05 06:42:59;;;;;;;10.30;9.30;;;13.40;99.90;;;;;;5070765;28;20304;-47
2021/10/05 06:45:25;;;;;;;11.27;9.97;;;13.50;99.90;;;;;;5066844;28;20983;-50
2021/10/05 06:47:51;;;;;;;10.80;9.80;;;13.50;99.90;;;;;;5070524;28;20427;-52
2021/10/05 06:50:17;;;;;;;12.57;9.80;;;13.50;99.90;;;;;;5071707;28;20507;-50
2021/10/05 06:52:43;;;;;;;13.03;8.73;;;13.50;99.90;;;;;;5070359;28;20185;-50
2021/10/05 06:55:09;;;;;;;9.63;8.73;;;13.50;99.90;;;;;;5070807;28;20419;-49
2021/10/05 06:57:35;;;;;;;11.00;9.77;;;13.50;99.90;;;;;;5070096;28;20427;-49
2021/10/05 07:00:01;;;;;;;12.27;10.87;;;13.60;99.90;;;;;;5069799;28;21034;-50
2021/10/05 07:02:26;;;;;;;12.20;10.83;;;13.70;99.90;;;;;;5068776;28;20758;-50
2021/10/05 07:04:52;;;;;;;13.97;12.47;;;13.70;99.90;;;;;;5068960;28;20182;-49
2021/10/05 07:07:17;;;;;;;16.33;12.10;;;13.80;99.90;;;;;;5069823;28;20256;-49
2021/10/05 07:09:43;;;;;;;15.20;13.47;;;13.80;99.90;;;;;;5066184;28;20222;-48
2021/10/05 07:12:09;;;;;;;19.93;17.90;;;13.90;99.90;;;;;;5064976;28;20648;-51
2021/10/05 07:14:34;;;;;;;21.63;18.50;;;13.90;99.90;;;;;;5065810;28;20851;-47
2021/10/05 07:17:01;;;;;;;14.67;12.80;;;14.00;99.90;;;;;;5080252;28;20260;-49
2021/10/05 07:19:27;;;;;;;14.33;12.57;;;14.10;99.90;;;;;;5075109;28;20290;-52
2021/10/05 07:21:53;;;;;;;13.57;12.17;;;14.20;99.90;;;;;;5076010;28;20511;-47
2021/10/05 07:24:18;;;;;;;13.30;11.07;;;14.20;99.90;;;;;;5082649;28;20546;-51
2021/10/05 07:26:44;;;;;;;12.50;11.17;;;14.20;99.90;;;;;;5078732;28;20182;-46
2021/10/05 07:29:10;;;;;;;15.30;10.40;;;14.20;99.90;;;;;;5070014;28;20174;-49
2021/10/05 07:31:35;;;;;;;11.17;9.97;;;14.20;99.90;;;;;;5079877;28;20181;-49
2021/10/05 07:34:02;;;;;;;11.73;10.30;;;14.30;99.90;;;;;;5087099;28;20931;-46
2021/10/05 07:36:28;;;;;;;10.47;9.30;;;14.30;99.90;;;;;;5075232;28;20197;-50
2021/10/05 07:38:54;;;;;;;14.90;10.57;;;14.30;99.90;;;;;;5069818;28;20416;-47
2021/10/05 07:41:19;;;;;;;11.20;10.00;;;14.20;99.90;;;;;;5069685;28;20419;-46
2021/10/05 07:43:45;;;;;;;10.10;8.80;;;14.20;99.90;;;;;;5063721;28;20969;-47
2021/10/05 07:46:12;;;;;;;11.03;10.00;;;14.30;99.90;;;;;;5071393;28;20189;-49
2021/10/05 07:48:38;;;;;;;12.70;9.60;;;14.40;99.90;;;;;;5075148;28;20173;-45
2021/10/05 07:51:03;;;;;;;12.00;9.43;;;14.30;99.90;;;;;;5071742;28;20926;-47
2021/10/05 07:53:29;;;;;;;11.30;9.20;;;14.30;99.90;;;;;;5073352;28;20208;-46
2021/10/05 07:55:55;;;;;;;12.60;10.17;;;14.20;99.90;;;;;;5069456;28;20197;-49
2021/10/05 07:58:20;;;;;;;11.57;10.00;;;14.20;99.90;;;;;;5084231;28;20248;-48
2021/10/05 08:00:46;;;;;;;12.20;9.70;;;14.30;99.90;;;;;;5079930;28;20213;-47
2021/10/05 08:03:11;;;;;;;12.20;11.00;;;14.30;99.90;;;;;;5069353;28;20204;-47
2021/10/05 08:05:37;;;;;;;12.50;10.97;;;14.30;99.90;;;;;;5068218;28;20186;-50
2021/10/05 08:08:08;;;;;;;13.07;10.37;;;14.30;99.90;;;;;;5069439;28;20559;-48
2021/10/05 08:10:34;;;;;;;11.73;10.53;;;14.30;99.90;;;;;;5067409;28;20455;-46
2021/10/05 08:13:01;;;;;;;12.07;10.83;;;14.40;99.90;;;;;;5069099;28;20428;-52
2021/10/05 08:15:28;;;;;;;12.37;11.17;;;14.50;99.90;;;;;;5068811;28;20439;-49
2021/10/05 08:17:55;;;;;;;12.50;10.50;;;14.50;99.90;;;;;;5068930;28;20906;-50
2021/10/05 08:20:21;;;;;;;11.57;10.30;;;14.70;99.90;;;;;;5070321;28;21246;-47
2021/10/05 08:22:47;;;;;;;11.30;10.10;;;14.80;99.90;;;;;;5077476;28;20512;-49
2021/10/05 08:25:13;;;;;;;10.00;9.00;;;14.90;99.90;;;;;;5068593;28;20776;-47
2021/10/05 08:27:38;;;;;;;11.57;10.37;;;15.00;99.90;;;;;;5067449;28;20185;-49
2021/10/05 08:30:06;;;;;;;12.57;10.30;;;15.10;99.90;;;;;;5068577;28;20186;-47
2021/10/05 08:32:32;;;;;;;10.83;9.73;;;15.20;99.90;;;;;;5068763;28;20625;-49
2021/10/05 08:34:58;;;;;;;11.30;10.10;;;15.30;99.90;;;;;;5068408;28;20424;-50
2021/10/05 08:37:23;;;;;;;13.00;10.97;;;15.30;99.90;;;;;;5068948;28;20928;-47
2021/10/05 08:39:49;;;;;;;11.37;10.20;;;15.40;99.90;;;;;;5068733;28;20193;-53
2021/10/05 08:42:18;;;;;;;11.67;10.47;;;15.50;99.90;;;;;;5068538;28;20181;-49
2021/10/05 08:44:44;;;;;;;13.30;10.00;;;15.50;99.90;;;;;;5067830;28;20226;-47
2021/10/05 08:47:10;;;;;;;11.47;10.30;;;15.60;99.90;;;;;;5068430;28;21340;-45
2021/10/05 08:49:35;;;;;;;14.90;11.07;;;15.80;99.90;;;;;;5068096;28;20192;-46
2021/10/05 08:52:01;;;;;;;10.67;9.57;;;15.80;99.90;;;;;;5082586;28;20177;-46
2021/10/05 08:54:28;;;;;;;13.43;9.83;;;16.10;99.90;;;;;;5081336;28;20347;-50
2021/10/05 08:56:54;;;;;;;10.63;9.50;;;15.70;99.90;;;;;;5082444;28;20187;-49
2021/10/05 08:59:19;;;;;;;9.97;8.90;;;15.70;99.90;;;;;;5088759;28;20418;-48
2021/10/05 09:01:49;;;;;;;11.80;9.17;;;15.40;99.90;;;;;;5079746;28;20264;-50
2021/10/05 09:04:14;;;;;;;10.83;9.73;;;15.50;99.90;;;;;;5068327;28;20711;-47
2021/10/05 09:06:43;;;;;;;12.13;9.43;;;15.60;99.90;;;;;;5068804;28;20451;-51
2021/10/05 09:09:08;;;;;;;10.40;9.40;;;15.80;99.90;;;;;;5079909;28;20223;-52
2021/10/05 09:11:46;;;;;;;11.10;9.87;;;15.80;99.90;;;;;;5068039;28;20408;-51
2021/10/05 09:14:11;;;;;;;10.83;9.73;;;16.00;99.90;;;;;;5071152;28;20211;-51
2021/10/05 09:16:37;;;;;;;15.47;10.27;;;16.10;99.90;;;;;;5088649;28;20419;-51
2021/10/05 09:19:05;;;;;;;14.10;9.90;;;16.20;99.90;;;;;;5088940;28;20189;-52
2021/10/05 09:21:37;;;;;;;11.50;9.97;;;16.30;99.90;;;;;;5088597;28;20181;-52
2021/10/05 09:24:05;;;;;;;12.63;10.40;;;16.40;99.90;;;;;;5083398;28;20463;-49
2021/10/05 09:26:50;;;;;;;10.37;9.37;;;16.50;99.90;;;;;;5076887;28;20413;-53
2021/10/05 09:29:37;;;;;;;11.10;10.03;;;16.70;99.90;;;;;;5069801;28;20422;-51
2021/10/05 09:32:05;;;;;;;10.53;9.47;;;16.80;99.90;;;;;;5064463;28;20431;-51
2021/10/05 09:34:34;;;;;;;11.30;9.57;;;17.00;99.90;;;;;;5067041;28;20421;-49
2021/10/05 09:37:09;;;;;;;12.77;9.23;;;17.00;99.90;;;;;;5068458;28;20418;-47
2021/10/05 09:39:48;;;;;;;11.40;9.70;;;17.20;99.90;;;;;;5068407;28;20425;-47
2021/10/05 09:42:25;;;;;;;11.20;10.00;;;17.20;99.90;;;;;;5068017;28;20416;-48
2021/10/05 09:45:01;;;;;;;13.50;9.60;;;17.30;99.90;;;;;;5075787;28;20437;-48
2021/10/05 09:48:07;;;;;;;9.97;9.07;;;17.10;99.90;;;;;;5067591;28;20413;-48
2021/10/05 09:50:35;;;;;;;12.33;9.77;;;16.80;99.90;;;;;;5038138;28;20504;-50
2021/10/05 09:53:06;;;;;;;11.40;8.90;;;16.60;99.90;;;;;;5072276;28;20439;-51
2021/10/05 09:55:35;;;;;;;11.27;9.53;;;16.50;99.90;;;;;;5077860;28;20994;-48
2021/10/05 09:58:01;;;;;;;10.53;9.53;;;16.40;99.90;;;;;;5067437;28;21016;-45
2021/10/05 10:00:29;;;;;;;10.40;8.77;;;16.50;99.90;;;;;;5068178;28;20630;-50
2021/10/05 10:02:55;;;;;;;11.70;8.90;;;16.60;99.90;;;;;;5076340;28;20803;-52
2021/10/05 10:05:23;;;;;;;10.50;9.40;;;16.60;99.90;;;;;;5089534;28;20416;-46
2021/10/05 10:07:51;;;;;;;10.43;9.43;;;16.70;99.90;;;;;;5087938;28;20500;-49
2021/10/05 10:10:21;;;;;;;10.10;9.10;;;16.70;99.90;;;;;;5078235;28;20413;-49
2021/10/05 10:12:48;;;;;;;9.47;8.57;;;16.80;99.90;;;;;;5069197;28;20426;-47
2021/10/05 10:15:15;;;;;;;10.23;9.33;;;16.90;99.90;;;;;;5069780;28;20959;-46
2021/10/05 10:17:41;;;;;;;9.97;9.07;;;17.10;99.90;;;;;;5067277;28;20434;-46
2021/10/05 10:20:18;;;;;;;10.40;9.27;;;17.30;99.90;;;;;;5069169;28;20418;-48
2021/10/05 10:22:45;;;;;;;10.10;9.10;;;17.60;99.90;;;;;;5066820;28;20458;-52
2021/10/05 10:25:25;;;;;;;8.80;8.00;;;17.90;99.90;;;;;;5067177;28;20443;-53
2021/10/05 10:27:56;;;;;;;11.20;8.83;;;18.70;99.90;;;;;;5059416;28;20764;-50
2021/10/05 10:30:22;;;;;;;10.17;9.23;;;19.30;99.90;;;;;;5072050;28;20419;-46
2021/10/05 10:32:53;;;;;;;10.30;9.30;;;20.00;99.90;;;;;;5081994;28;20430;-50
2021/10/05 10:35:18;;;;;;;11.80;10.70;;;20.80;99.90;;;;;;5076790;28;20509;-47
2021/10/05 10:37:48;;;;;;;13.03;11.87;;;21.40;99.90;;;;;;5073047;28;20423;-52
2021/10/05 10:40:16;;;;;;;12.10;10.97;;;22.10;99.90;;;;;;5071487;28;20191;-51
2021/10/05 10:42:43;;;;;;;12.97;11.87;;;22.10;99.90;;;;;;5072417;28;20479;-47
2021/10/05 10:45:26;;;;;;;14.03;12.73;;;22.00;99.90;;;;;;5078579;28;20441;-50
2021/10/05 10:47:54;;;;;;;13.80;12.67;;;21.90;99.90;;;;;;5072801;28;20429;-46
2021/10/05 10:50:20;;;;;;;15.73;14.30;;;21.80;99.90;;;;;;5081028;28;20506;-48
2021/10/05 10:52:48;;;;;;;15.60;14.20;;;21.80;99.90;;;;;;5091808;28;20411;-50
2021/10/05 10:55:17;;;;;;;18.17;16.57;;;21.70;99.90;;;;;;5079257;28;20437;-46
2021/10/05 10:57:45;;;;;;;17.30;15.80;;;21.50;99.90;;;;;;5077407;28;20482;-50
2021/10/05 11:00:18;;;;;;;18.17;16.50;;;21.30;99.90;;;;;;5069582;28;20440;-50
2021/10/05 11:02:45;;;;;;;19.77;17.67;;;21.00;99.90;;;;;;5085677;28;20463;-50
2021/10/05 11:05:12;;;;;;;18.73;17.03;;;20.50;99.90;;;;;;5070391;28;20420;-49
2021/10/05 11:07:38;;;;;;;20.57;18.53;;;20.30;99.90;;;;;;5081277;28;20428;-52
2021/10/05 11:10:05;;;;;;;20.07;18.00;;;19.90;99.90;;;;;;5070839;28;20461;-47
2021/10/05 11:12:30;;;;;;;18.10;16.33;;;19.60;99.90;;;;;;5069950;28;20660;-50
2021/10/05 11:14:58;;;;;;;18.40;16.80;;;19.50;99.90;;;;;;5080379;28;20415;-47
2021/10/05 11:17:23;;;;;;;18.13;16.43;;;19.50;99.90;;;;;;5090253;28;20181;-52
2021/10/05 11:19:49;;;;;;;18.93;17.13;;;19.30;99.90;;;;;;5072416;28;20447;-49
2021/10/05 11:22:16;;;;;;;18.50;16.70;;;19.20;99.90;;;;;;5070374;28;20193;-48
2021/10/05 11:24:49;;;;;;;17.97;16.27;;;19.30;99.90;;;;;;5075523;28;20231;-48
2021/10/05 11:27:17;;;;;;;19.47;17.57;;;19.40;99.90;;;;;;5060058;28;20917;-47
2021/10/05 11:29:44;;;;;;;19.10;17.30;;;19.30;99.90;;;;;;5070306;28;20477;-48
2021/10/05 11:32:13;;;;;;;18.60;16.80;;;19.30;99.90;;;;;;5077155;28;20428;-50
2021/10/05 11:34:41;;;;;;;19.63;17.67;;;19.40;99.90;;;;;;5068757;28;20443;-48
2021/10/05 11:37:10;;;;;;;18.23;16.33;;;19.20;99.90;;;;;;5075631;28;20429;-50
2021/10/05 11:39:37;;;;;;;20.33;18.23;;;19.40;99.90;;;;;;5085535;28;20485;-50
2021/10/05 11:42:10;;;;;;;18.97;17.20;;;19.40;99.90;;;;;;5069151;28;20439;-48
2021/10/05 11:44:46;;;;;;;18.10;16.40;;;19.20;99.90;;;;;;5063241;28;20494;-48
2021/10/05 11:47:15;;;;;;;18.47;16.60;;;19.10;99.90;;;;;;5067964;28;20960;-48
2021/10/05 11:49:44;;;;;;;18.90;17.00;;;19.10;99.90;;;;;;5071235;28;20932;-48
2021/10/05 11:52:16;;;;;;;18.90;17.00;;;19.00;99.90;;;;;;5066252;28;20446;-49
2021/10/05 11:54:41;;;;;;;18.00;16.30;;;18.90;99.90;;;;;;5070252;28;20488;-46
2021/10/05 11:57:15;;;;;;;19.17;16.90;;;18.70;99.90;;;;;;5078586;28;20513;-50
2021/10/05 11:59:41;;;;;;;18.63;16.40;;;18.70;99.90;;;;;;5069499;28;20761;-44
2021/10/05 12:02:12;;;;;;;18.13;16.33;;;18.70;99.90;;;;;;5077195;28;20533;-49
2021/10/05 12:04:41;;;;;;;18.40;16.50;;;18.30;99.90;;;;;;5088942;28;20422;-47
2021/10/05 12:07:11;;;;;;;18.77;15.73;;;18.20;99.90;;;;;;5082001;28;20511;-47
2021/10/05 12:09:38;;;;;;;17.97;16.07;;;18.20;99.90;;;;;;5088196;28;20411;-48
2021/10/05 12:12:14;;;;;;;17.93;16.13;;;18.20;99.90;;;;;;5085242;28;20530;-48
2021/10/05 12:14:52;;;;;;;19.77;17.67;;;18.20;99.90;;;;;;5073370;28;20762;-51
2021/10/05 12:17:19;;;;;;;21.30;17.93;;;18.20;99.90;;;;;;5069517;28;20411;-49
2021/10/05 12:19:48;;;;;;;18.47;16.50;;;18.10;99.90;;;;;;5082183;28;21094;-46
2021/10/05 12:22:27;;;;;;;17.87;16.03;;;18.00;99.90;;;;;;5077464;28;20980;-45
2021/10/05 12:24:58;;;;;;;19.60;17.30;;;18.00;99.90;;;;;;5078819;28;20481;-49
2021/10/05 12:27:30;;;;;;;20.10;18.00;;;18.10;99.90;;;;;;5069530;28;20444;-47
2021/10/05 12:30:18;;;;;;;19.87;17.80;;;18.00;99.90;;;;;;5070929;28;20851;-50
2021/10/05 12:32:49;;;;;;;20.00;17.87;;;18.00;99.90;;;;;;5069062;28;20433;-47
2021/10/05 12:35:31;;;;;;;22.43;19.47;;;18.00;99.90;;;;;;5075827;28;21163;-48
2021/10/05 12:38:10;;;;;;;23.23;19.53;;;17.90;99.90;;;;;;5069130;28;21235;-48